Terminal Aerodrome Forecast
Issued by NWS Twin Cities, MN

Home | Current Version | Previous Version | Graphics & Text | Print | Product List | Glossary On
Versions: 1 2 3 4 5 6 7 8 9 10 11 12 13 14 15 16 17 18 19 20 21 22
000
FTUS43 KMPX 262300
TAFEAU
TAF
KEAU 262331Z 2700/2724 32007KT P6SM SCT023 OVC045
      TEMPO 2700/2703 6SM -SN BKN023
     FM270300 33009KT P6SM SCT045 OVC080
     FM270600 34007KT P6SM BKN100
     FM271200 32006KT P6SM SKC
     FM272200 VRB03KT P6SM SCT200=

USA.gov is the U.S. government's official web portal to all federal, state and local government web resources and services.